Arbyrd, Missouri
Current Conditions -  °F | °C
As of 9:53 AM on Friday 31 Oct 2014 (Local Time) from KHKA Reporting Station
Overcast Overcast  
Wind Chill: 53°   Ceiling: 4400
Heat Index: 53°   Visibility: 10mi
Dew Point: 48°   Wind: 26mph
Humidity: 83%   Direction: 10°N
Pressure: 30.14"   Gusts: 35mph
Location:  36.05°N, 90.24°W
Report Text: KHKA 311453Z AUTO 01023G30KT 10SM FEW017 OVC044 12/09 A3014 RMK AO2 PK WND 01030/1452 SLP207 T01170089 51029
Loading
Personal Weather Stations






























Interactive Weather Map New forecast layout! Learn more

10-Day Weather Forecast

Advertisements
Track Severe Weather on mobile